Time;durP1;ratioP1;P1;durP2;ratioP2;P2;SDS_P1;SDS_P2;PMS_P1;PMS_P2;Temp;Humidity;BMP_temperature;BMP_pressure;BME280_temperature;BME280_humidity;BME280_pressure;Samples;Min_cycle;Max_cycle;Signal;HPM_P1;HPM_P2
2023/08/13 00:00:34;;;;;;;;;5.25;5.25;;;;;23.69;55.08;101035.25;5077296;28;47480;-85
2023/08/13 00:03:00;;;;;;;;;3.00;3.00;;;;;23.71;55.02;101052.38;5077519;28;44798;-85
2023/08/13 00:05:30;;;;;;;;;4.00;4.00;;;;;23.78;55.20;101046.78;5078502;28;44741;-84
2023/08/13 00:07:55;;;;;;;;;4.00;3.00;;;;;23.64;55.72;101048.09;5094999;27;44764;-84
2023/08/13 00:10:20;;;;;;;;;3.00;3.00;;;;;23.61;55.79;101036.44;5058967;28;46258;-86
2023/08/13 00:12:48;;;;;;;;;5.00;3.33;;;;;23.61;55.55;101031.91;5078155;28;44822;-84
2023/08/13 00:15:14;;;;;;;;;5.50;5.00;;;;;23.63;55.69;101037.28;5077524;28;44945;-85
2023/08/13 00:17:41;;;;;;;;;5.25;4.00;;;;;23.69;55.66;101034.34;5078218;28;44926;-85
2023/08/13 00:20:09;;;;;;;;;4.75;4.00;;;;;23.57;55.69;101027.53;5075930;28;47095;-85
2023/08/13 00:22:34;;;;;;;;;4.25;4.25;;;;;23.53;55.99;101025.84;5074992;28;44952;-83
2023/08/13 00:25:02;;;;;;;;;4.25;4.25;;;;;23.54;56.06;101024.94;5094162;27;44756;-84
2023/08/13 00:27:28;;;;;;;;;6.25;6.00;;;;;23.51;55.85;101025.03;5078358;28;44883;-85
2023/08/13 00:29:53;;;;;;;;;4.25;3.50;;;;;23.44;56.42;101020.78;5077725;28;45019;-84
2023/08/13 00:32:19;;;;;;;;;5.25;4.00;;;;;23.42;56.21;101025.38;5077345;28;44824;-84
2023/08/13 00:34:45;;;;;;;;;3.00;3.00;;;;;23.34;56.45;101014.78;5077370;28;45191;-85
2023/08/13 00:37:10;;;;;;;;;5.00;4.50;;;;;23.35;56.46;101009.28;5076507;28;44787;-85
2023/08/13 00:39:36;;;;;;;;;4.67;4.67;;;;;23.38;56.39;101020.97;5076140;28;44989;-86
2023/08/13 00:42:01;;;;;;;;;3.50;3.00;;;;;23.36;56.30;101019.19;5077009;28;44746;-85
2023/08/13 00:44:26;;;;;;;;;4.50;4.50;;;;;23.34;56.82;101017.47;5075010;28;44836;-85
2023/08/13 00:46:53;;;;;;;;;5.33;4.33;;;;;23.32;56.67;101009.38;5093290;27;44875;-85
2023/08/13 00:49:19;;;;;;;;;5.50;5.00;;;;;23.30;57.20;101011.25;5075690;28;47298;-84
2023/08/13 00:51:45;;;;;;;;;6.75;4.75;;;;;23.27;56.80;101022.25;5074201;28;44835;-85
2023/08/13 00:57:32;;;;;;;;;2.67;2.67;;;;;23.23;57.21;101017.88;5076980;28;44752;-86
2023/08/13 01:00:01;;;;;;;;;4.00;3.25;;;;;23.31;56.89;101013.06;5076203;28;47172;-85
2023/08/13 01:02:29;;;;;;;;;3.00;3.00;;;;;23.22;57.25;101013.34;5065816;28;45270;-83
2023/08/13 01:04:55;;;;;;;;;3.75;3.75;;;;;23.15;57.16;101006.38;5064596;28;44927;-83
2023/08/13 01:10:49;;;;;;;;;2.75;2.75;;;;;23.24;57.48;101010.59;5065264;28;45421;-83
2023/08/13 01:13:17;;;;;;;;;4.25;4.00;;;;;23.24;57.74;101007.88;5047009;28;45184;-83
2023/08/13 01:15:44;;;;;;;;;3.00;3.00;;;;;23.11;57.85;101000.16;5063412;28;45538;-83
2023/08/13 01:18:11;;;;;;;;;4.00;4.00;;;;;23.09;57.62;101004.75;5066991;28;45465;-83
2023/08/13 01:20:39;;;;;;;;;3.33;3.33;;;;;23.06;57.99;100995.81;5080576;28;45794;-83
2023/08/13 01:23:05;;;;;;;;;2.25;2.25;;;;;23.01;57.77;100992.38;5065937;28;45425;-84
2023/08/13 01:25:32;;;;;;;;;5.00;4.00;;;;;23.05;58.00;100996.78;5064804;28;44703;-84
2023/08/13 01:28:19;;;;;;;;;4.00;4.00;;;;;23.11;57.83;101000.16;5063274;28;45522;-83
2023/08/13 01:30:58;;;;;;;;;5.00;4.00;;;;;23.06;58.08;101001.25;5079531;28;47179;-83
2023/08/13 01:33:33;;;;;;;;;3.33;3.33;;;;;23.14;57.68;100999.16;5063443;28;44766;-83
2023/08/13 01:36:01;;;;;;;;;6.75;5.50;;;;;23.03;57.98;100993.25;5064381;28;44810;-82
2023/08/13 01:38:30;;;;;;;;;3.75;3.75;;;;;22.94;58.63;100992.53;5065944;28;45437;-83
2023/08/13 01:41:03;;;;;;;;;2.67;2.67;;;;;23.08;58.50;100999.38;5064333;28;46431;-82
2023/08/13 01:43:30;;;;;;;;;5.00;3.33;;;;;22.98;58.63;100990.63;5063062;28;45479;-83
2023/08/13 01:45:57;;;;;;;;;5.00;4.00;;;;;22.92;58.73;100997.13;5065124;28;44950;-83
2023/08/13 01:48:22;;;;;;;;;4.00;4.00;;;;;22.88;58.84;100998.16;5083212;28;45749;-82
2023/08/13 01:50:47;;;;;;;;;3.00;3.00;;;;;22.91;58.34;100998.09;5084749;27;46672;-83
2023/08/13 01:53:20;;;;;;;;;4.25;3.00;;;;;23.05;58.76;100994.94;5086941;28;44746;-82
2023/08/13 01:55:45;;;;;;;;;3.25;3.25;;;;;22.85;58.63;100995.56;5085829;28;44850;-83
2023/08/13 01:58:11;;;;;;;;;4.00;3.67;;;;;22.83;58.59;100989.31;5085777;27;44758;-83
2023/08/13 02:00:36;;;;;;;;;2.00;2.00;;;;;22.84;59.18;100991.06;5065892;28;47071;-83
2023/08/13 02:03:02;;;;;;;;;3.50;3.50;;;;;22.84;59.15;100999.22;5085120;28;45142;-82
2023/08/13 02:05:27;;;;;;;;;3.75;3.75;;;;;22.81;59.51;101004.75;5084581;28;44820;-82
2023/08/13 02:07:53;;;;;;;;;6.25;4.25;;;;;22.77;59.42;100994.94;5085370;28;44707;-82
2023/08/13 02:10:18;;;;;;;;;2.75;2.75;;;;;22.80;58.99;101007.50;5083935;28;47569;-82
2023/08/13 02:12:44;;;;;;;;;2.75;2.75;;;;;22.76;59.16;101006.72;5083849;28;45352;-83
2023/08/13 02:15:09;;;;;;;;;5.00;5.00;;;;;22.74;59.78;101005.88;5067579;28;44843;-83
2023/08/13 02:17:35;;;;;;;;;5.75;4.00;;;;;22.70;59.77;101009.63;5085878;28;44732;-83
2023/08/13 02:20:01;;;;;;;;;3.50;3.50;;;;;22.71;59.53;101006.88;5085452;28;46180;-83
2023/08/13 02:22:26;;;;;;;;;4.25;4.00;;;;;22.67;59.89;101005.19;5084967;28;44813;-83
2023/08/13 02:24:52;;;;;;;;;3.00;3.00;;;;;22.66;59.92;101003.44;5067282;28;44857;-83
2023/08/13 02:27:17;;;;;;;;;2.00;2.00;;;;;22.66;60.18;101014.28;5083880;28;45001;-83
2023/08/13 02:29:43;;;;;;;;;4.00;4.00;;;;;22.63;60.02;101013.47;5080655;28;47315;-83
2023/08/13 02:32:09;;;;;;;;;6.00;4.67;;;;;22.62;60.38;101006.28;5062391;28;45066;-84
2023/08/13 02:34:43;;;;;;;;;2.50;2.25;;;;;22.75;59.95;100994.09;5067491;28;44886;-82
2023/08/13 02:37:08;;;;;;;;;5.00;3.33;;;;;22.62;60.48;101000.84;5086363;28;44841;-83
2023/08/13 02:39:34;;;;;;;;;5.00;3.00;;;;;22.60;60.51;100994.59;5085102;28;45435;-83
2023/08/13 02:41:59;;;;;;;;;4.00;4.00;;;;;22.60;60.43;100997.31;5067906;28;44983;-83
2023/08/13 02:44:26;;;;;;;;;2.00;2.00;;;;;22.56;60.79;100991.09;5066982;28;44858;-83
2023/08/13 02:46:52;;;;;;;;;4.00;4.00;;;;;22.55;60.42;100984.78;5080600;27;44960;-82
2023/08/13 02:49:17;;;;;;;;;4.67;3.00;;;;;22.55;61.00;100987.50;5064452;28;47129;-83
2023/08/13 02:51:43;;;;;;;;;6.75;3.75;;;;;22.54;60.97;100984.81;5064094;28;45368;-83
2023/08/13 02:54:08;;;;;;;;;5.00;3.00;;;;;22.51;61.12;100983.09;5065768;28;44728;-81
2023/08/13 02:56:34;;;;;;;;;4.00;4.00;;;;;22.47;60.93;100975.13;5064877;28;44939;-82
2023/08/13 02:58:59;;;;;;;;;5.33;5.33;;;;;22.46;60.93;100979.66;5065145;28;46990;-82
2023/08/13 03:01:24;;;;;;;;;2.75;2.75;;;;;22.41;61.50;100976.19;5066633;28;44781;-82
2023/08/13 03:03:52;;;;;;;;;1.75;1.75;;;;;22.38;62.38;100970.91;5070974;28;44779;-84
2023/08/13 03:06:22;;;;;;;;;6.50;5.75;;;;;22.52;61.59;100982.19;5074633;28;44908;-85
2023/08/13 03:08:48;;;;;;;;;2.00;2.00;;;;;22.42;61.76;100964.44;5076746;28;45763;-85
2023/08/13 03:11:14;;;;;;;;;3.00;2.00;;;;;22.42;62.00;100972.56;5076763;28;44765;-85
2023/08/13 03:13:39;;;;;;;;;5.67;4.00;;;;;22.44;62.25;100973.41;5092610;28;44726;-84
2023/08/13 03:16:05;;;;;;;;;4.00;4.00;;;;;22.40;62.16;100959.97;5075878;28;44793;-85
2023/08/13 03:18:30;;;;;;;;;3.50;3.25;;;;;22.36;62.55;100965.50;5091331;27;46021;-85
2023/08/13 03:20:56;;;;;;;;;2.50;2.50;;;;;22.35;62.52;100971.84;5075284;28;44773;-85
2023/08/13 03:23:21;;;;;;;;;3.50;3.50;;;;;22.31;62.70;100972.88;5076428;28;44919;-85
2023/08/13 03:25:47;;;;;;;;;4.00;4.00;;;;;22.37;62.18;100969.97;5077556;28;44834;-85
2023/08/13 03:28:12;;;;;;;;;4.25;4.25;;;;;22.37;62.71;100963.69;5076330;28;45333;-84
2023/08/13 03:34:01;;;;;;;;;5.75;4.00;;;;;22.29;63.13;100972.03;5068850;28;44649;-84
2023/08/13 03:36:26;;;;;;;;;5.50;4.00;;;;;22.18;63.16;100974.19;5065385;28;45349;-83
2023/08/13 03:38:51;;;;;;;;;2.75;2.50;;;;;22.20;62.99;100977.72;5066412;28;46189;-84
2023/08/13 03:41:17;;;;;;;;;7.00;4.00;;;;;22.17;63.10;100975.09;5065326;28;45246;-83
2023/08/13 03:43:45;;;;;;;;;3.50;3.00;;;;;22.15;63.74;100976.97;5063611;28;45423;-83
2023/08/13 03:46:11;;;;;;;;;7.00;4.50;;;;;22.18;63.47;100975.06;5082404;28;45437;-83
2023/08/13 03:48:42;;;;;;;;;3.00;3.00;;;;;22.11;63.81;100984.28;5085713;28;45007;-82
2023/08/13 03:51:08;;;;;;;;;3.00;3.00;;;;;22.05;64.07;100962.81;5085429;28;45425;-82
2023/08/13 03:53:33;;;;;;;;;5.25;4.50;;;;;22.03;64.09;100964.69;5068075;28;44962;-83
2023/08/13 03:55:58;;;;;;;;;3.75;2.50;;;;;22.01;64.52;100969.25;5067809;28;44873;-83
2023/08/13 03:58:24;;;;;;;;;3.75;3.75;;;;;21.96;64.68;100976.66;5085722;28;45687;-83
2023/08/13 04:00:50;;;;;;;;;4.75;4.25;;;;;21.86;64.93;100967.91;5066362;28;45035;-83
2023/08/13 04:03:16;;;;;;;;;6.50;3.25;;;;;21.83;65.09;100973.38;5085827;28;44830;-83
2023/08/13 04:05:42;;;;;;;;;5.00;3.50;;;;;21.77;65.03;100974.47;5089018;27;44832;-86
2023/08/13 04:08:07;;;;;;;;;3.00;3.00;;;;;21.74;65.60;100974.53;5095732;27;45314;-85
2023/08/13 04:10:34;;;;;;;;;2.75;2.75;;;;;21.78;65.98;100972.66;5062159;28;44844;-85
2023/08/13 04:13:02;;;;;;;;;4.00;4.00;;;;;21.66;66.13;100970.28;5096967;27;44720;-82
2023/08/13 04:15:28;;;;;;;;;4.50;4.50;;;;;21.69;66.10;100981.94;5099388;27;44878;-82
2023/08/13 04:17:53;;;;;;;;;5.75;4.75;;;;;21.70;66.18;100983.69;5079490;28;46715;-82
2023/08/13 04:20:20;;;;;;;;;5.75;4.00;;;;;21.67;66.46;100975.66;5097812;27;44890;-81
2023/08/13 04:23:26;;;;;;;;;6.00;4.00;;;;;21.86;66.04;100983.25;5098045;27;44817;-81
2023/08/13 04:25:51;;;;;;;;;4.50;4.50;;;;;21.69;66.49;100981.00;5096908;27;44840;-82
2023/08/13 04:28:17;;;;;;;;;4.00;3.50;;;;;21.64;66.82;100975.75;5078401;27;46959;-81
2023/08/13 04:30:42;;;;;;;;;3.75;3.50;;;;;21.64;67.01;100981.16;5096237;27;45233;-81
2023/08/13 04:33:08;;;;;;;;;4.00;3.25;;;;;21.67;67.19;100991.00;5095575;27;45339;-81
2023/08/13 04:35:33;;;;;;;;;3.50;3.00;;;;;21.65;67.42;100985.63;5095842;27;44772;-80
2023/08/13 04:37:59;;;;;;;;;4.50;3.00;;;;;21.61;67.53;100973.09;5078035;28;47347;-81
2023/08/13 04:40:24;;;;;;;;;4.50;3.00;;;;;21.64;67.33;100989.28;5095716;27;45294;-81
2023/08/13 04:42:51;;;;;;;;;4.75;4.75;;;;;21.65;67.36;100985.63;5096334;27;44749;-81
2023/08/13 04:45:16;;;;;;;;;6.00;4.25;;;;;21.62;67.54;100972.19;5096940;27;44817;-81
2023/08/13 04:47:41;;;;;;;;;3.50;3.50;;;;;21.60;67.54;100984.88;5091743;28;46961;-80
2023/08/13 04:50:09;;;;;;;;;3.00;3.00;;;;;21.66;68.11;100978.41;5076487;28;44891;-80
2023/08/13 04:52:34;;;;;;;;;4.25;4.25;;;;;21.60;68.10;100987.59;5076779;28;44954;-80
2023/08/13 04:55:00;;;;;;;;;4.25;4.25;;;;;21.59;68.03;100977.66;5074923;28;44843;-81
2023/08/13 04:57:26;;;;;;;;;4.50;3.00;;;;;21.64;67.81;100985.69;5075959;28;47381;-81
2023/08/13 04:59:51;;;;;;;;;5.50;3.00;;;;;21.65;67.81;100991.03;5075964;28;44833;-80
2023/08/13 05:02:20;;;;;;;;;3.00;3.00;;;;;21.76;68.10;100986.22;5076380;28;44923;-80
2023/08/13 05:04:45;;;;;;;;;4.00;4.00;;;;;21.66;67.85;100987.41;5075470;28;44671;-80
2023/08/13 05:07:10;;;;;;;;;3.00;3.00;;;;;21.64;67.88;100981.16;5073330;28;47015;-80
2023/08/13 05:09:36;;;;;;;;;7.00;4.75;;;;;21.72;67.77;100991.78;5074077;28;44816;-80
2023/08/13 05:12:03;;;;;;;;;4.75;4.75;;;;;21.80;67.89;100986.16;5074628;28;45212;-81
2023/08/13 05:14:28;;;;;;;;;3.50;2.75;;;;;21.75;67.99;100992.59;5075341;28;44848;-81
2023/08/13 05:16:54;;;;;;;;;6.00;4.00;;;;;21.80;68.05;100989.72;5073487;28;47047;-81
2023/08/13 05:19:20;;;;;;;;;4.50;4.00;;;;;21.80;68.15;100994.28;5074419;28;45317;-81
2023/08/13 05:21:46;;;;;;;;;3.00;2.25;;;;;21.77;67.86;100984.38;5076097;28;45326;-81
2023/08/13 05:24:11;;;;;;;;;5.00;3.25;;;;;21.81;67.78;100982.50;5058526;27;44890;-81
2023/08/13 05:26:37;;;;;;;;;3.25;3.25;;;;;21.82;67.88;100981.56;5074971;28;45193;-83
2023/08/13 05:29:05;;;;;;;;;4.33;4.33;;;;;21.84;67.76;100985.13;5075130;28;44752;-83
2023/08/13 05:31:31;;;;;;;;;5.33;3.67;;;;;21.80;68.36;100978.91;5075089;28;45013;-82
2023/08/13 05:33:58;;;;;;;;;3.75;3.75;;;;;21.95;68.20;100980.25;5075173;28;45501;-82
2023/08/13 05:39:46;;;;;;;;;5.00;4.00;;;;;21.90;68.20;100988.53;5076292;28;44755;-81
2023/08/13 05:42:11;;;;;;;;;3.00;3.00;;;;;21.95;68.10;100991.09;5092586;28;44864;-81
2023/08/13 05:44:36;;;;;;;;;4.67;4.67;;;;;22.01;68.07;100993.63;5076310;28;45332;-82
2023/08/13 05:47:02;;;;;;;;;4.00;3.00;;;;;22.05;67.82;100998.03;5081898;28;45100;-81
2023/08/13 05:49:28;;;;;;;;;1.67;1.67;;;;;22.08;68.14;100995.22;5077616;28;45275;-81
2023/08/13 05:51:53;;;;;;;;;5.00;5.00;;;;;22.11;67.91;100995.13;5095444;27;45237;-81
2023/08/13 05:54:19;;;;;;;;;4.00;4.00;;;;;22.15;67.51;100994.09;5095859;27;44851;-81
2023/08/13 05:56:45;;;;;;;;;4.00;2.00;;;;;22.16;67.82;100986.88;5094878;28;45283;-81
2023/08/13 05:59:11;;;;;;;;;5.00;3.00;;;;;22.23;68.18;100993.88;5094498;28;44958;-81
2023/08/13 06:01:36;;;;;;;;;4.33;3.00;;;;;22.27;67.48;100997.41;5094379;28;45005;-81
2023/08/13 06:04:02;;;;;;;;;4.00;3.67;;;;;22.34;67.67;100999.03;5094681;28;44745;-80
2023/08/13 06:06:27;;;;;;;;;5.00;4.00;;;;;22.33;67.36;101002.66;5077949;27;47098;-81
2023/08/13 06:08:54;;;;;;;;;3.25;2.50;;;;;22.34;67.23;101002.63;5080801;28;44887;-81
2023/08/13 06:11:19;;;;;;;;;4.00;3.00;;;;;22.30;67.74;100997.31;5098673;27;44901;-81
2023/08/13 06:14:25;;;;;;;;;5.00;3.67;;;;;22.50;67.12;101007.53;5098181;27;44714;-81
2023/08/13 06:16:50;;;;;;;;;5.00;5.00;;;;;22.36;67.85;101002.56;5097365;28;47344;-80
2023/08/13 06:19:16;;;;;;;;;6.50;3.25;;;;;22.43;67.71;101006.84;5098656;27;45208;-80
2023/08/13 06:21:41;;;;;;;;;5.00;4.00;;;;;22.46;67.06;100998.63;5096747;27;44894;-83
2023/08/13 06:24:06;;;;;;;;;3.67;3.67;;;;;22.50;67.40;101008.44;5095908;27;44994;-80
2023/08/13 06:27:25;;;;;;;;;3.75;3.75;;;;;22.70;67.19;101004.19;5079196;28;46473;-81
2023/08/13 06:29:50;;;;;;;;;4.25;4.25;;;;;22.56;66.71;101001.91;5098704;28;44866;-80
2023/08/13 06:32:16;;;;;;;;;4.33;3.00;;;;;22.61;66.64;101009.94;5099291;27;44919;-80
2023/08/13 06:34:41;;;;;;;;;3.00;2.00;;;;;22.61;66.68;100997.25;5098029;28;45181;-81
2023/08/13 06:37:08;;;;;;;;;6.00;3.33;;;;;22.73;67.21;100990.56;5098060;27;45582;-81
2023/08/13 06:39:33;;;;;;;;;2.00;2.00;;;;;22.72;66.92;101005.03;5099544;28;44776;-80
2023/08/13 06:41:59;;;;;;;;;3.25;2.50;;;;;22.69;66.66;100994.31;5098496;28;44665;-81
2023/08/13 06:44:24;;;;;;;;;4.25;4.00;;;;;22.73;66.67;100998.69;5081150;28;44809;-80
2023/08/13 06:46:50;;;;;;;;;3.00;3.00;;;;;22.74;66.80;100995.03;5098292;28;45187;-81
2023/08/13 06:49:15;;;;;;;;;3.67;3.67;;;;;22.81;66.08;101004.75;5099252;28;44732;-81
2023/08/13 06:52:31;;;;;;;;;3.00;3.00;;;;;23.04;65.84;101011.28;5099702;27;44779;-81
2023/08/13 06:54:56;;;;;;;;;5.33;4.00;;;;;22.93;66.37;101001.63;5097327;28;44829;-81
2023/08/13 06:57:23;;;;;;;;;5.00;4.00;;;;;23.02;66.05;101002.31;5097645;27;47287;-82
2023/08/13 06:59:48;;;;;;;;;3.00;3.00;;;;;22.93;65.57;101000.75;5099118;28;44796;-81
2023/08/13 07:02:13;;;;;;;;;4.00;3.50;;;;;23.03;65.59;100998.66;5100195;28;44919;-82
2023/08/13 07:05:26;;;;;;;;;4.75;4.00;;;;;23.29;65.00;101004.09;5080612;28;45242;-81
2023/08/13 07:07:51;;;;;;;;;3.75;3.00;;;;;23.26;65.24;101006.00;5096975;28;45229;-82
2023/08/13 07:10:16;;;;;;;;;2.00;2.00;;;;;23.35;65.14;101009.28;5098739;27;44808;-81
2023/08/13 07:12:42;;;;;;;;;1.75;1.75;;;;;23.46;65.01;101008.03;5098341;28;45145;-81
2023/08/13 07:15:09;;;;;;;;;4.25;3.00;;;;;23.58;64.10;101004.88;5099427;27;44798;-81
2023/08/13 07:17:34;;;;;;;;;4.00;2.00;;;;;23.72;63.70;101013.41;5099678;28;45464;-81
2023/08/13 07:20:00;;;;;;;;;4.00;4.00;;;;;23.89;63.69;101014.66;5099963;27;44863;-82
2023/08/13 07:22:26;;;;;;;;;2.00;2.00;;;;;24.03;63.46;101012.28;5098896;27;44786;-81
2023/08/13 07:24:51;;;;;;;;;3.00;3.00;;;;;24.15;62.90;101003.69;5093298;27;44866;-82
2023/08/13 07:27:19;;;;;;;;;5.75;2.75;;;;;24.29;62.20;101019.47;5085927;28;45469;-83
2023/08/13 07:29:46;;;;;;;;;2.00;2.00;;;;;24.43;62.05;101009.91;5087697;28;44873;-82
2023/08/13 07:32:11;;;;;;;;;3.00;2.75;;;;;24.46;61.68;101002.50;5087989;28;44809;-83
2023/08/13 07:34:36;;;;;;;;;3.50;2.00;;;;;24.58;61.84;101005.69;5087486;28;45506;-83
2023/08/13 07:37:02;;;;;;;;;2.00;2.00;;;;;24.68;61.55;101013.44;5085094;28;46866;-85
2023/08/13 07:39:30;;;;;;;;;3.25;3.25;;;;;24.78;61.30;101005.78;5065657;28;45340;-83
2023/08/13 07:41:55;;;;;;;;;3.50;3.50;;;;;25.01;60.37;101009.41;5083534;28;45439;-83
2023/08/13 07:44:21;;;;;;;;;2.75;2.75;;;;;25.11;59.91;101005.34;5084737;28;45863;-82
2023/08/13 07:46:46;;;;;;;;;3.00;3.00;;;;;25.15;60.15;101006.97;5082795;27;47556;-83
2023/08/13 07:49:12;;;;;;;;;2.50;2.50;;;;;25.33;59.52;101002.63;5083519;28;45416;-82
2023/08/13 07:51:40;;;;;;;;;1.50;1.50;;;;;25.53;59.56;101004.44;5084934;28;44867;-83
2023/08/13 07:55:29;;;;;;;;;3.00;3.00;;;;;25.64;58.39;101002.16;5084881;28;45198;-82
2023/08/13 07:58:00;;;;;;;;;6.25;3.25;;;;;25.63;58.03;101002.22;5081869;28;47078;-82
2023/08/13 08:00:26;;;;;;;;;3.00;3.00;;;;;25.48;57.79;100996.50;5083037;28;45670;-82
2023/08/13 08:02:53;;;;;;;;;2.75;2.75;;;;;25.45;58.06;100990.28;5084327;28;45123;-83
2023/08/13 08:05:19;;;;;;;;;3.50;3.50;;;;;25.47;58.34;100993.81;5083800;28;44915;-82
2023/08/13 08:07:46;;;;;;;;;7.50;4.00;;;;;25.66;58.04;101002.09;5083112;28;45460;-83
2023/08/13 08:10:14;;;;;;;;;2.50;2.50;;;;;25.61;57.59;100996.84;5081885;28;46392;-82
2023/08/13 08:12:40;;;;;;;;;3.75;3.00;;;;;25.57;57.49;101000.63;5068572;28;44739;-84
2023/08/13 08:15:07;;;;;;;;;2.00;2.00;;;;;25.62;57.44;101000.44;5100672;27;45439;-85
2023/08/13 08:17:33;;;;;;;;;2.75;2.75;;;;;25.67;57.08;101007.47;5099562;27;47476;-84
2023/08/13 08:23:21;;;;;;;;;2.00;2.00;;;;;25.60;56.84;100997.78;5094197;28;44800;-83
2023/08/13 08:25:47;;;;;;;;;1.75;1.75;;;;;25.61;56.59;100998.66;5081403;28;44802;-83
2023/08/13 08:28:12;;;;;;;;;2.00;1.00;;;;;25.57;55.97;101000.63;5082176;28;47222;-83
2023/08/13 08:30:38;;;;;;;;;3.25;3.00;;;;;25.54;56.46;100996.22;5081141;28;44805;-83
2023/08/13 08:33:03;;;;;;;;;1.75;1.75;;;;;25.58;55.95;100991.53;5084134;28;44798;-84
2023/08/13 08:36:25;;;;;;;;;2.00;2.00;;;;;25.74;55.76;100997.19;5086980;28;44860;-83
2023/08/13 08:38:50;;;;;;;;;4.25;2.50;;;;;25.61;55.96;100988.69;5087378;28;47010;-83
2023/08/13 08:41:18;;;;;;;;;3.75;2.00;;;;;25.70;55.89;100993.69;5087296;28;44758;-82
2023/08/13 08:43:44;;;;;;;;;2.00;2.00;;;;;25.64;56.17;100987.66;5078479;27;44849;-84
2023/08/13 08:46:15;;;;;;;;;3.75;2.00;;;;;25.76;55.38;100981.66;5081457;27;45203;-84
2023/08/13 08:48:41;;;;;;;;;2.75;2.00;;;;;25.66;55.53;100989.34;5095433;27;47542;-84
2023/08/13 08:51:07;;;;;;;;;0.75;0.75;;;;;25.64;55.68;100983.09;5086409;28;44731;-82
2023/08/13 08:53:34;;;;;;;;;1.00;1.00;;;;;25.63;55.28;100984.06;5066483;28;44832;-83
2023/08/13 08:56:00;;;;;;;;;3.50;1.00;;;;;25.59;56.00;100976.06;5083137;27;44998;-83
2023/08/13 08:58:25;;;;;;;;;0.00;0.00;;;;;25.79;55.24;100986.94;5064477;28;47190;-83
2023/08/13 09:00:56;;;;;;;;;1.00;1.00;;;;;25.91;54.67;100980.06;5065344;28;44847;-82
2023/08/13 09:03:25;;;;;;;;;2.00;2.00;;;;;26.13;54.88;100983.56;5065728;28;44846;-83
2023/08/13 09:05:50;;;;;;;;;1.00;1.00;;;;;26.06;54.48;100979.38;5066932;28;44761;-83
2023/08/13 09:08:16;;;;;;;;;2.00;2.00;;;;;26.03;53.69;100979.50;5084232;28;46710;-83
2023/08/13 09:10:42;;;;;;;;;1.00;1.00;;;;;26.07;53.60;100989.31;5063850;28;45467;-83
2023/08/13 09:13:09;;;;;;;;;1.00;1.00;;;;;26.18;53.54;100988.81;5065517;28;44768;-83
2023/08/13 09:15:41;;;;;;;;;2.50;1.50;;;;;26.37;53.27;100986.09;5064851;28;44771;-83
2023/08/13 09:18:07;;;;;;;;;4.25;2.75;;;;;26.42;53.09;100984.06;5064587;28;47145;-83
2023/08/13 09:20:32;;;;;;;;;1.25;1.25;;;;;26.53;52.89;100986.25;5066778;28;45646;-81
2023/08/13 09:22:59;;;;;;;;;1.25;1.00;;;;;26.67;52.65;100980.16;5066354;28;44738;-82
2023/08/13 09:25:26;;;;;;;;;2.50;1.25;;;;;26.64;52.27;100983.00;5065793;28;45219;-82
2023/08/13 09:27:52;;;;;;;;;2.25;2.25;;;;;26.54;51.99;100978.00;5064691;28;45425;-82
2023/08/13 09:30:21;;;;;;;;;1.75;1.75;;;;;26.63;52.32;100967.63;5080402;28;44907;-82
2023/08/13 09:32:47;;;;;;;;;1.00;1.00;;;;;26.61;51.87;100978.59;5064656;28;44850;-81
2023/08/13 09:35:12;;;;;;;;;1.75;1.00;;;;;26.58;51.82;100969.69;5064916;28;45500;-82
2023/08/13 09:37:44;;;;;;;;;2.25;1.00;;;;;26.54;51.71;100972.53;5066480;28;45634;-82
2023/08/13 09:40:10;;;;;;;;;4.00;2.75;;;;;26.58;51.31;100973.28;5069744;28;44926;-82
2023/08/13 09:42:38;;;;;;;;;2.25;2.00;;;;;26.59;51.94;100963.28;5098675;27;44818;-82
2023/08/13 09:45:09;;;;;;;;;2.50;1.50;;;;;26.78;51.88;100964.09;5081734;28;44738;-82
2023/08/13 09:47:36;;;;;;;;;2.75;2.75;;;;;26.87;51.59;100960.94;5089766;28;45413;-81
2023/08/13 09:50:03;;;;;;;;;1.75;1.75;;;;;26.98;51.65;100960.38;5084421;28;45348;-81
2023/08/13 09:52:30;;;;;;;;;2.75;1.75;;;;;27.10;51.93;100962.47;5103481;27;44689;-83
2023/08/13 09:55:08;;;;;;;;;2.00;2.00;;;;;27.22;51.45;100952.78;5086401;27;44888;-81
2023/08/13 09:57:36;;;;;;;;;2.00;1.00;;;;;27.25;51.69;100952.66;5084771;28;47999;-81
2023/08/13 10:00:05;;;;;;;;;3.50;2.00;;;;;27.50;51.83;100963.16;5101657;27;45366;-81
2023/08/13 10:02:32;;;;;;;;;1.75;1.75;;;;;27.49;50.29;100958.69;5102168;27;44726;-81
2023/08/13 10:04:58;;;;;;;;;1.00;1.00;;;;;27.48;49.81;100959.63;5103091;27;44783;-82
2023/08/13 10:07:24;;;;;;;;;2.25;2.25;;;;;27.48;50.44;100953.28;5101348;27;46770;-82
2023/08/13 10:09:51;;;;;;;;;1.25;1.25;;;;;27.63;50.62;100957.03;5101507;27;44999;-82
2023/08/13 10:12:18;;;;;;;;;1.00;0.75;;;;;27.70;50.22;100953.88;5083888;28;44736;-82
2023/08/13 10:14:43;;;;;;;;;2.75;1.50;;;;;27.79;49.98;100963.44;5084486;27;44932;-81
2023/08/13 10:17:09;;;;;;;;;3.25;1.00;;;;;27.81;50.20;100960.63;5082761;28;46618;-81
2023/08/13 10:19:40;;;;;;;;;1.00;1.00;;;;;27.95;50.08;100962.63;5101746;27;44638;-82
2023/08/13 10:22:08;;;;;;;;;1.00;1.00;;;;;27.99;49.25;100954.16;5100631;27;44798;-81
2023/08/13 10:24:35;;;;;;;;;1.75;1.25;;;;;27.97;48.90;100956.09;5101109;27;44778;-82
2023/08/13 10:27:00;;;;;;;;;3.50;1.50;;;;;27.99;47.91;100964.22;5100796;27;45228;-81
2023/08/13 10:29:37;;;;;;;;;2.25;0.75;;;;;28.20;48.42;100962.13;5084087;28;44893;-81
2023/08/13 10:35:25;;;;;;;;;0.50;0.50;;;;;28.36;48.10;100957.59;5102461;27;44764;-82
2023/08/13 10:37:57;;;;;;;;;1.00;1.00;;;;;28.65;47.84;100946.84;5084620;27;46987;-83
2023/08/13 10:40:24;;;;;;;;;1.00;1.00;;;;;28.64;46.50;100942.34;5102351;27;44775;-83
2023/08/13 10:42:51;;;;;;;;;1.00;1.00;;;;;28.47;46.33;100944.16;5085162;27;44725;-82
2023/08/13 10:45:19;;;;;;;;;2.00;1.75;;;;;28.53;47.39;100949.31;5102026;27;44680;-82
2023/08/13 10:47:50;;;;;;;;;0.00;0.00;;;;;28.60;45.69;100949.88;5096152;27;47238;-83
2023/08/13 10:50:30;;;;;;;;;1.50;0.25;;;;;28.57;46.32;100938.19;5096411;27;44754;-82
2023/08/13 10:53:01;;;;;;;;;0.00;0.00;;;;;28.61;46.31;100935.19;5079725;28;44768;-83
2023/08/13 10:55:30;;;;;;;;;0.25;0.00;;;;;28.58;46.44;100929.91;5083131;28;44862;-82
2023/08/13 10:57:56;;;;;;;;;1.25;1.25;;;;;28.65;46.19;100933.16;5083401;28;45110;-82
2023/08/13 11:00:24;;;;;;;;;0.75;0.50;;;;;28.67;46.26;100928.47;5083178;28;44855;-82
2023/08/13 11:02:53;;;;;;;;;0.00;0.00;;;;;28.78;46.25;100931.44;5082997;28;44756;-82
2023/08/13 11:05:21;;;;;;;;;0.50;0.25;;;;;28.69;45.98;100932.00;5082829;28;44772;-82
2023/08/13 11:08:26;;;;;;;;;0.00;0.00;;;;;28.65;46.17;100931.31;5081897;28;45508;-82
2023/08/13 11:10:53;;;;;;;;;0.67;0.67;;;;;28.29;46.51;100928.81;5098242;27;44819;-82
2023/08/13 11:13:19;;;;;;;;;2.75;1.50;;;;;28.10;46.47;100927.13;5081927;28;44752;-82
2023/08/13 11:15:56;;;;;;;;;1.00;1.00;;;;;28.01;46.60;100929.50;5081495;28;45216;-82
2023/08/13 11:18:22;;;;;;;;;1.25;1.25;;;;;27.77;46.28;100921.63;5097603;27;47321;-81
2023/08/13 11:20:49;;;;;;;;;0.25;0.25;;;;;27.77;47.03;100934.44;5080759;28;44807;-82
2023/08/13 11:23:16;;;;;;;;;2.00;2.00;;;;;27.73;46.76;100929.16;5080190;28;45237;-81
2023/08/13 11:25:44;;;;;;;;;0.25;0.25;;;;;27.80;47.01;100929.69;5080187;28;44860;-81
2023/08/13 11:28:10;;;;;;;;;3.00;1.00;;;;;27.63;46.71;100930.63;5077760;28;45116;-82
2023/08/13 11:30:40;;;;;;;;;3.75;2.50;;;;;27.55;46.36;100927.38;5077063;28;44724;-82
2023/08/13 11:33:08;;;;;;;;;1.75;1.50;;;;;27.36;47.08;100932.09;5092816;27;44828;-82
2023/08/13 11:35:34;;;;;;;;;1.25;1.25;;;;;27.17;47.83;100930.31;5076918;28;44689;-82
2023/08/13 11:37:59;;;;;;;;;0.33;0.33;;;;;27.26;47.64;100929.81;5093053;27;46983;-81
2023/08/13 11:40:25;;;;;;;;;2.25;1.25;;;;;27.56;47.75;100939.22;5077282;28;45170;-82
2023/08/13 11:42:58;;;;;;;;;4.50;3.00;;;;;27.95;47.38;100918.91;5075443;28;44808;-82
2023/08/13 11:45:24;;;;;;;;;1.25;1.25;;;;;28.21;47.51;100921.03;5079268;28;44891;-82
2023/08/13 11:48:07;;;;;;;;;5.00;3.00;;;;;28.55;45.95;100912.78;5084256;28;45286;-82